createdAt,value
2017-06-28T00:00:31.449Z,88.93
2017-06-28T00:01:32.342Z,88.64
2017-06-28T00:02:32.986Z,88.83
2017-06-28T00:03:33.627Z,88.73
2017-06-28T00:04:34.269Z,88.64
2017-06-28T00:05:34.914Z,89.03
2017-06-28T00:06:35.504Z,88.54
2017-06-28T00:07:36.148Z,89.12
2017-06-28T00:08:36.791Z,88.93
2017-06-28T00:09:37.582Z,89.03
2017-06-28T00:10:38.227Z,88.64
2017-06-28T00:11:38.875Z,88.83
2017-06-28T00:12:39.521Z,88.83
2017-06-28T00:13:40.112Z,88.83
2017-06-28T00:14:40.759Z,88.73
2017-06-28T00:15:41.459Z,88.83
2017-06-28T00:16:42.102Z,88.93
2017-06-28T00:17:42.746Z,89.51
2017-06-28T00:18:43.586Z,89.12
2017-06-28T00:19:44.232Z,88.45
2017-06-28T00:20:44.873Z,88.83
2017-06-28T00:21:45.515Z,88.73
2017-06-28T00:22:46.159Z,88.83
2017-06-28T00:23:46.801Z,88.83
2017-06-28T00:24:47.444Z,88.83
2017-06-28T00:25:48.088Z,88.83
2017-06-28T00:26:48.883Z,89.12
2017-06-28T00:27:49.524Z,89.12
2017-06-28T00:28:50.167Z,89.31
2017-06-28T00:29:51.011Z,89.03
2017-06-28T00:30:51.652Z,88.83
2017-06-28T00:31:52.296Z,88.98
2017-06-28T00:32:52.937Z,89.31
2017-06-28T00:33:53.582Z,88.98
2017-06-28T00:34:54.224Z,88.98
2017-06-28T00:35:54.870Z,89.03
2017-06-28T00:36:55.513Z,89.27
2017-06-28T00:37:56.354Z,89.17
2017-06-28T00:38:56.997Z,89.07
2017-06-28T00:39:57.641Z,88.79
2017-06-28T00:40:58.284Z,89.47
2017-06-28T00:41:58.928Z,89.07
2017-06-28T00:42:59.571Z,89.27
2017-06-28T00:44:00.213Z,88.89
2017-06-28T00:45:00.854Z,88.98
2017-06-28T00:46:01.797Z,89.07
2017-06-28T00:47:02.444Z,89.27
2017-06-28T00:48:03.140Z,88.98
2017-06-28T00:49:03.783Z,88.89
2017-06-28T00:50:04.434Z,89.37
2017-06-28T00:51:05.084Z,89.27
2017-06-28T00:52:05.727Z,88.89
2017-06-28T00:53:06.370Z,89.17
2017-06-28T00:54:07.014Z,88.98
2017-06-28T00:55:07.856Z,89.07
2017-06-28T00:56:08.500Z,88.98
2017-06-28T00:57:09.142Z,89.27
2017-06-28T00:58:09.788Z,89.07
2017-06-28T00:59:10.433Z,89.07
2017-06-28T01:00:11.075Z,88.89
2017-06-28T01:01:11.716Z,89.07
2017-06-28T01:02:12.358Z,88.98
2017-06-28T01:03:13.201Z,88.89
2017-06-28T01:04:13.846Z,89.17
2017-06-28T01:05:14.489Z,89.37
2017-06-28T01:06:15.129Z,88.98
2017-06-28T01:07:15.772Z,88.89
2017-06-28T01:08:16.420Z,89.47
2017-06-28T01:09:17.062Z,88.89
2017-06-28T01:10:17.706Z,88.98
2017-06-28T01:11:18.351Z,89.37
2017-06-28T01:12:18.996Z,89.47
2017-06-28T01:13:19.639Z,88.79
2017-06-28T01:14:20.281Z,89.07
2017-06-28T01:15:20.923Z,89.56
2017-06-28T01:16:21.567Z,89.37
2017-06-28T01:17:22.213Z,89.47
2017-06-28T01:18:22.851Z,89.17
2017-06-28T01:19:23.696Z,88.89
2017-06-28T01:20:24.340Z,88.89
2017-06-28T01:21:24.981Z,89.17
2017-06-28T01:22:25.625Z,89.07
2017-06-28T01:23:26.265Z,88.98
2017-06-28T01:24:26.910Z,89.07
2017-06-28T01:25:27.555Z,88.89
2017-06-28T01:26:28.197Z,89.07
2017-06-28T01:27:29.038Z,89.07
2017-06-28T01:28:29.682Z,89.27
2017-06-28T01:29:30.324Z,89.56
2017-06-28T01:30:30.969Z,88.98
2017-06-28T01:31:31.611Z,89.56
2017-06-28T01:32:32.255Z,89.07
2017-06-28T01:33:32.895Z,89.65
2017-06-28T01:34:33.538Z,89.47
2017-06-28T01:35:34.180Z,89.47
2017-06-28T01:36:35.024Z,89.17
2017-06-28T01:37:35.666Z,89.47
2017-06-28T01:38:36.307Z,89.27
2017-06-28T01:39:36.950Z,89.37
2017-06-28T01:40:37.594Z,89.27
2017-06-28T01:41:38.238Z,89.27
2017-06-28T01:42:38.881Z,89.17
2017-06-28T01:43:39.523Z,89.27
2017-06-28T01:44:40.373Z,89.47
2017-06-28T01:45:41.016Z,89.65
2017-06-28T01:46:41.658Z,89.47
2017-06-28T01:47:42.300Z,89.27
2017-06-28T01:48:42.944Z,89.17
2017-06-28T01:49:43.593Z,89.56
2017-06-28T01:50:44.232Z,89.27
2017-06-28T01:51:44.872Z,89.56
2017-06-28T01:52:45.567Z,89.85
2017-06-28T01:53:46.209Z,90.05
2017-06-28T01:54:46.851Z,90.53
2017-06-28T01:55:47.495Z,89.95
2017-06-28T01:56:48.138Z,89.75
2017-06-28T01:57:48.782Z,89.85
2017-06-28T01:58:49.425Z,89.65
2017-06-28T01:59:50.069Z,90.23
2017-06-28T02:00:50.911Z,90.14
2017-06-28T02:01:51.555Z,90.33
2017-06-28T02:02:52.197Z,90.05
2017-06-28T02:03:52.841Z,89.47
2017-06-28T02:04:53.484Z,89.56
2017-06-28T02:05:54.126Z,89.17
2017-06-28T02:06:54.767Z,89.27
2017-06-28T02:07:55.415Z,89.47
2017-06-28T02:08:56.054Z,89.27
2017-06-28T02:09:56.847Z,89.07
2017-06-28T02:10:57.491Z,89.03
2017-06-28T02:11:58.132Z,89.13
2017-06-28T02:12:58.776Z,89.13
2017-06-28T02:13:59.418Z,89.32
2017-06-28T02:15:00.062Z,89.03
2017-06-28T02:16:00.703Z,89.32
2017-06-28T02:17:01.347Z,89.42
2017-06-28T02:18:02.188Z,89.71
2017-06-28T02:19:02.832Z,89.51
2017-06-28T02:20:03.475Z,89.90
2017-06-28T02:21:04.118Z,90.38
2017-06-28T02:22:04.758Z,89.71
2017-06-28T02:23:05.406Z,89.51
2017-06-28T02:24:06.105Z,90.00
2017-06-28T02:25:06.748Z,89.51
2017-06-28T02:26:07.740Z,90.19
2017-06-28T02:27:08.383Z,90.48
2017-06-28T02:28:09.025Z,90.29
2017-06-28T02:29:09.667Z,90.19
2017-06-28T02:30:10.309Z,90.29
2017-06-28T02:31:10.952Z,90.29
2017-06-28T02:32:11.598Z,90.29
2017-06-28T02:33:12.239Z,90.29
2017-06-28T02:34:13.079Z,90.67
2017-06-28T02:35:13.722Z,91.16
2017-06-28T02:36:14.365Z,90.96
2017-06-28T02:37:15.009Z,90.96
2017-06-28T02:38:15.652Z,91.16
2017-06-28T02:39:16.301Z,91.40
2017-06-28T02:40:16.943Z,91.44
2017-06-28T02:41:17.584Z,91.64
2017-06-28T02:42:18.375Z,91.64
2017-06-28T02:43:19.067Z,91.64
2017-06-28T02:44:19.708Z,91.64
2017-06-28T02:45:20.354Z,91.64
2017-06-28T02:46:20.995Z,91.60
2017-06-28T02:47:21.636Z,92.41
2017-06-28T02:48:22.279Z,91.93
2017-06-28T02:49:22.922Z,91.74
2017-06-28T02:50:23.563Z,92.12
2017-06-28T02:51:24.405Z,91.74
2017-06-28T02:52:25.047Z,92.02
2017-06-28T02:53:25.689Z,91.74
2017-06-28T02:54:26.333Z,92.22
2017-06-28T02:55:26.974Z,92.41
2017-06-28T02:56:27.617Z,92.22
2017-06-28T02:57:28.258Z,91.93
2017-06-28T02:58:28.902Z,92.27
2017-06-28T02:59:29.751Z,92.32
2017-06-28T03:00:30.385Z,92.12
2017-06-28T03:01:31.030Z,92.27
2017-06-28T03:02:31.670Z,92.50
2017-06-28T03:03:32.312Z,92.50
2017-06-28T03:04:32.956Z,92.32
2017-06-28T03:05:33.600Z,92.22
2017-06-28T03:06:34.242Z,92.89
2017-06-28T03:07:35.033Z,92.70
2017-06-28T03:08:35.676Z,92.50
2017-06-28T03:09:36.321Z,92.89
2017-06-28T03:10:36.964Z,92.89
2017-06-28T03:11:37.605Z,92.80
2017-06-28T03:12:38.248Z,93.66
2017-06-28T03:13:38.891Z,93.28
2017-06-28T03:14:39.535Z,92.89
2017-06-28T03:15:40.374Z,93.37
2017-06-28T03:16:41.017Z,93.57
2017-06-28T03:17:41.657Z,93.47
2017-06-28T03:18:42.300Z,93.33
2017-06-28T03:19:42.943Z,93.18
2017-06-28T03:20:43.587Z,93.28
2017-06-28T03:21:44.232Z,92.99
2017-06-28T03:22:44.871Z,93.57
2017-06-28T03:23:45.513Z,93.37
2017-06-28T03:24:46.404Z,94.15
2017-06-28T03:25:47.045Z,94.15
2017-06-28T03:26:47.691Z,94.15
2017-06-28T03:27:48.335Z,94.00
2017-06-28T03:28:48.976Z,93.47
2017-06-28T03:29:49.618Z,93.57
2017-06-28T03:30:50.264Z,93.62
2017-06-28T03:31:50.902Z,93.81
2017-06-28T03:32:51.694Z,93.91
2017-06-28T03:33:52.337Z,93.76
2017-06-28T03:34:52.980Z,93.95
2017-06-28T03:35:53.622Z,93.81
2017-06-28T03:36:54.262Z,93.85
2017-06-28T03:37:54.904Z,93.66
2017-06-28T03:38:55.547Z,93.66
2017-06-28T03:39:56.192Z,93.71
2017-06-28T03:40:57.083Z,93.43
2017-06-28T03:41:57.726Z,93.52
2017-06-28T03:42:58.368Z,94.05
2017-06-28T03:43:59.011Z,93.57
2017-06-28T03:44:59.656Z,93.91
2017-06-28T03:46:00.300Z,94.05
2017-06-28T03:47:00.942Z,94.05
2017-06-28T03:48:01.585Z,94.15
2017-06-28T03:49:02.478Z,93.76
2017-06-28T03:50:03.118Z,94.05
2017-06-28T03:51:03.760Z,93.52
2017-06-28T03:52:04.404Z,93.47
2017-06-28T03:53:05.046Z,94.00
2017-06-28T03:54:05.690Z,94.05
2017-06-28T03:55:06.333Z,94.00
2017-06-28T03:56:06.976Z,94.15
2017-06-28T03:57:07.819Z,93.95
2017-06-28T03:58:08.462Z,93.66
2017-06-28T03:59:09.104Z,93.37
2017-06-28T04:00:09.746Z,93.28
2017-06-28T04:01:10.390Z,93.47
2017-06-28T04:02:11.031Z,94.05
2017-06-28T04:03:11.673Z,94.05
2017-06-28T04:04:12.317Z,93.57
2017-06-28T04:05:12.959Z,93.66
2017-06-28T04:06:13.803Z,94.05
2017-06-28T04:07:14.446Z,93.47
2017-06-28T04:08:15.088Z,94.15
2017-06-28T04:09:15.729Z,94.05
2017-06-28T04:10:16.375Z,93.76
2017-06-28T04:11:17.016Z,93.76
2017-06-28T04:12:17.659Z,93.76
2017-06-28T04:13:18.300Z,93.57
2017-06-28T04:14:19.194Z,93.66
2017-06-28T04:15:19.843Z,93.85
2017-06-28T04:16:20.481Z,93.95
2017-06-28T04:17:21.123Z,93.47
2017-06-28T04:18:21.766Z,94.15
2017-06-28T04:19:22.407Z,93.76
2017-06-28T04:20:23.050Z,93.76
2017-06-28T04:21:23.692Z,93.66
2017-06-28T04:22:24.534Z,93.85
2017-06-28T04:23:25.176Z,93.95
2017-06-28T04:24:25.816Z,93.66
2017-06-28T04:25:26.460Z,94.24
2017-06-28T04:26:27.104Z,93.76
2017-06-28T04:27:27.744Z,93.62
2017-06-28T04:28:28.386Z,94.20
2017-06-28T04:29:29.032Z,93.81
2017-06-28T04:30:29.876Z,94.00
2017-06-28T04:31:30.518Z,93.47
2017-06-28T04:32:31.162Z,93.85
2017-06-28T04:33:31.802Z,93.71
2017-06-28T04:34:32.445Z,93.62
2017-06-28T04:35:33.088Z,93.62
2017-06-28T04:36:33.732Z,93.66
2017-06-28T04:37:34.374Z,93.85
2017-06-28T04:38:35.015Z,93.95
2017-06-28T04:39:35.859Z,94.20
2017-06-28T04:40:36.506Z,94.10
2017-06-28T04:41:37.148Z,93.76
2017-06-28T04:42:37.789Z,93.76
2017-06-28T04:43:38.432Z,93.57
2017-06-28T04:44:39.078Z,93.66
2017-06-28T04:45:39.716Z,94.15
2017-06-28T04:46:40.360Z,93.85
2017-06-28T04:47:41.752Z,93.76
2017-06-28T04:48:42.393Z,93.76
2017-06-28T04:49:43.040Z,93.52
2017-06-28T04:50:43.679Z,93.85
2017-06-28T04:51:44.325Z,93.71
2017-06-28T04:52:44.966Z,94.58
2017-06-28T04:53:45.611Z,94.00
2017-06-28T04:54:46.253Z,94.29
2017-06-28T04:55:47.094Z,93.47
2017-06-28T04:56:47.736Z,94.29
2017-06-28T04:57:48.380Z,94.29
2017-06-28T04:58:49.025Z,94.15
2017-06-28T04:59:49.668Z,93.71
2017-06-28T05:00:50.310Z,94.39
2017-06-28T05:01:50.951Z,94.39
2017-06-28T05:02:51.591Z,94.58
2017-06-28T05:03:52.633Z,93.91
2017-06-28T05:04:53.275Z,94.43
2017-06-28T05:05:53.919Z,94.10
2017-06-28T05:06:54.561Z,94.29
2017-06-28T05:07:55.204Z,94.58
2017-06-28T05:08:55.847Z,94.39
2017-06-28T05:09:56.488Z,94.39
2017-06-28T05:10:57.129Z,94.39
2017-06-28T05:11:57.972Z,94.29
2017-06-28T05:12:58.617Z,94.39
2017-06-28T05:13:59.262Z,94.58
2017-06-28T05:14:59.902Z,94.20
2017-06-28T05:16:00.546Z,94.10
2017-06-28T05:17:01.188Z,94.10
2017-06-28T05:18:01.832Z,94.39
2017-06-28T05:19:02.471Z,94.10
2017-06-28T05:20:03.116Z,94.39
2017-06-28T05:21:04.008Z,94.48
2017-06-28T05:22:04.653Z,94.58
2017-06-28T05:23:05.292Z,94.10
2017-06-28T05:24:05.935Z,94.58
2017-06-28T05:25:06.579Z,94.58
2017-06-28T05:26:07.279Z,94.10
2017-06-28T05:27:07.923Z,94.78
2017-06-28T05:28:08.563Z,94.48
2017-06-28T05:29:09.405Z,94.58
2017-06-28T05:30:10.048Z,94.78
2017-06-28T05:31:10.691Z,94.78
2017-06-28T05:32:11.330Z,94.48
2017-06-28T05:33:11.971Z,94.58
2017-06-28T05:34:12.617Z,94.39
2017-06-28T05:35:13.259Z,94.39
2017-06-28T05:36:13.900Z,94.48
2017-06-28T05:37:14.792Z,94.58
2017-06-28T05:38:15.434Z,94.96
2017-06-28T05:39:16.075Z,94.48
2017-06-28T05:40:16.718Z,94.58
2017-06-28T05:41:17.363Z,94.58
2017-06-28T05:42:18.006Z,94.39
2017-06-28T05:43:18.650Z,94.58
2017-06-28T05:44:19.289Z,94.29
2017-06-28T05:45:20.280Z,94.68
2017-06-28T05:46:20.924Z,94.78
2017-06-28T05:47:21.565Z,94.48
2017-06-28T05:48:22.209Z,94.48
2017-06-28T05:49:22.852Z,94.58
2017-06-28T05:50:23.550Z,94.78
2017-06-28T05:51:24.192Z,95.16
2017-06-28T05:52:24.836Z,95.06
2017-06-28T05:53:25.479Z,94.96
2017-06-28T05:54:26.471Z,94.78
2017-06-28T05:55:27.111Z,94.68
2017-06-28T05:56:27.752Z,94.78
2017-06-28T05:57:28.397Z,95.06
2017-06-28T05:58:29.037Z,94.78
2017-06-28T05:59:29.679Z,94.96
2017-06-28T06:00:30.322Z,95.06
2017-06-28T06:01:30.966Z,94.68
2017-06-28T06:02:31.757Z,95.06
2017-06-28T06:03:32.400Z,95.45
2017-06-28T06:04:33.062Z,95.26
2017-06-28T06:05:33.682Z,94.39
2017-06-28T06:06:34.324Z,94.48
2017-06-28T06:07:34.965Z,94.29
2017-06-28T06:08:35.607Z,93.52
2017-06-28T06:09:36.248Z,93.43
2017-06-28T06:10:37.091Z,92.94
2017-06-28T06:11:37.733Z,93.04
2017-06-28T06:12:38.377Z,92.94
2017-06-28T06:13:39.077Z,92.94
2017-06-28T06:14:39.718Z,92.27
2017-06-28T06:15:40.360Z,92.65
2017-06-28T06:16:41.008Z,92.56
2017-06-28T06:17:41.645Z,92.36
2017-06-28T06:18:42.438Z,93.13
2017-06-28T06:19:43.082Z,93.23
2017-06-28T06:20:43.722Z,92.85
2017-06-28T06:21:44.365Z,92.85
2017-06-28T06:22:45.009Z,92.56
2017-06-28T06:23:45.650Z,92.56
2017-06-28T06:24:46.291Z,93.04
2017-06-28T06:25:46.934Z,92.85
2017-06-28T06:26:47.676Z,92.56
2017-06-28T06:27:48.384Z,92.65
2017-06-28T06:28:49.024Z,92.08
2017-06-28T06:29:49.667Z,92.36
2017-06-28T06:30:50.307Z,92.65
2017-06-28T06:31:50.948Z,92.46
2017-06-28T06:32:51.589Z,92.27
2017-06-28T06:33:52.235Z,92.46
2017-06-28T06:34:52.875Z,92.65
2017-06-28T06:35:53.719Z,92.56
2017-06-28T06:36:54.363Z,92.75
2017-06-28T06:37:55.007Z,92.75
2017-06-28T06:38:55.649Z,92.36
2017-06-28T06:39:56.293Z,92.65
2017-06-28T06:40:56.937Z,92.65
2017-06-28T06:41:57.581Z,93.13
2017-06-28T06:42:58.225Z,93.43
2017-06-28T06:43:59.112Z,92.36
2017-06-28T06:44:59.755Z,92.75
2017-06-28T06:46:00.396Z,93.13
2017-06-28T06:47:01.042Z,93.33
2017-06-28T06:48:01.686Z,92.65
2017-06-28T06:49:02.326Z,93.33
2017-06-28T06:50:02.968Z,92.85
2017-06-28T06:51:03.608Z,92.36
2017-06-28T06:52:04.401Z,92.85
2017-06-28T06:53:05.042Z,92.85
2017-06-28T06:54:05.683Z,92.94
2017-06-28T06:55:06.328Z,92.85
2017-06-28T06:56:06.967Z,93.13
2017-06-28T06:57:07.614Z,92.94
2017-06-28T06:58:08.310Z,93.04
2017-06-28T06:59:08.952Z,92.56
2017-06-28T07:00:09.895Z,92.85
2017-06-28T07:01:10.538Z,92.75
2017-06-28T07:02:11.179Z,93.23
2017-06-28T07:03:11.820Z,92.27
2017-06-28T07:04:12.464Z,92.65
2017-06-28T07:05:13.107Z,92.85
2017-06-28T07:06:13.750Z,93.33
2017-06-28T07:07:14.394Z,92.46
2017-06-28T07:08:15.036Z,92.85
2017-06-28T07:09:15.829Z,92.27
2017-06-28T07:10:16.470Z,92.46
2017-06-28T07:11:17.112Z,92.27
2017-06-28T07:12:17.708Z,92.85
2017-06-28T07:13:18.348Z,92.65
2017-06-28T07:14:18.988Z,91.98
2017-06-28T07:15:19.631Z,91.60
2017-06-28T07:16:20.271Z,92.36
2017-06-28T07:17:21.116Z,90.82
2017-06-28T07:18:21.759Z,91.78
2017-06-28T07:19:22.459Z,91.40
2017-06-28T07:20:23.100Z,91.78
2017-06-28T07:21:23.745Z,91.60
2017-06-28T07:22:24.384Z,91.40
2017-06-28T07:23:25.027Z,91.54
2017-06-28T07:24:25.668Z,91.35
2017-06-28T07:25:26.513Z,90.87
2017-06-28T07:26:27.154Z,90.77
2017-06-28T07:27:27.796Z,91.83
2017-06-28T07:28:28.437Z,90.53
2017-06-28T07:29:29.082Z,90.72
2017-06-28T07:30:29.725Z,90.92
2017-06-28T07:31:30.369Z,91.64
2017-06-28T07:32:31.011Z,90.96
2017-06-28T07:33:31.952Z,91.54
2017-06-28T07:34:32.592Z,90.77
2017-06-28T07:35:33.237Z,91.35
2017-06-28T07:36:33.878Z,90.82
2017-06-28T07:37:34.520Z,91.64
2017-06-28T07:38:35.165Z,91.74
2017-06-28T07:39:35.811Z,91.54
2017-06-28T07:40:36.450Z,90.87
2017-06-28T07:41:37.344Z,91.74
2017-06-28T07:42:37.986Z,90.48
2017-06-28T07:43:38.627Z,90.67
2017-06-28T07:44:39.273Z,91.64
2017-06-28T07:45:39.917Z,91.25
2017-06-28T07:46:40.557Z,90.87
2017-06-28T07:47:41.197Z,90.38
2017-06-28T07:48:41.842Z,90.77
2017-06-28T07:49:42.485Z,89.61
2017-06-28T07:50:43.326Z,90.29
2017-06-28T07:51:43.968Z,90.48
2017-06-28T07:52:44.609Z,90.38
2017-06-28T07:53:45.251Z,90.58
2017-06-28T07:54:45.894Z,90.09
2017-06-28T07:55:46.543Z,91.06
2017-06-28T07:56:47.177Z,90.29
2017-06-28T07:57:47.820Z,90.38
2017-06-28T07:58:48.615Z,89.42
2017-06-28T07:59:49.255Z,88.75
2017-06-28T08:00:49.899Z,90.29
2017-06-28T08:01:50.542Z,90.09
2017-06-28T08:02:51.183Z,88.93
2017-06-28T08:03:51.826Z,88.26
2017-06-28T08:04:52.468Z,89.03
2017-06-28T08:05:53.109Z,89.23
2017-06-28T08:06:53.951Z,90.19
2017-06-28T08:07:54.592Z,88.93
2017-06-28T08:08:55.235Z,88.84
2017-06-28T08:09:55.876Z,90.19
2017-06-28T08:10:56.519Z,90.29
2017-06-28T08:11:57.161Z,88.65
2017-06-28T08:12:57.807Z,87.68
2017-06-28T08:13:58.449Z,88.12
2017-06-28T08:14:59.392Z,88.60
2017-06-28T08:16:00.033Z,88.84
2017-06-28T08:17:00.733Z,87.93
2017-06-28T08:18:01.378Z,89.51
2017-06-28T08:19:02.017Z,89.47
2017-06-28T08:20:02.660Z,89.03
2017-06-28T08:21:03.300Z,88.22
2017-06-28T08:22:03.945Z,89.23
2017-06-28T08:23:04.590Z,88.31
2017-06-28T08:24:05.532Z,88.26
2017-06-28T08:25:06.172Z,89.86
2017-06-28T08:26:06.814Z,88.70
2017-06-28T08:27:07.457Z,88.70
2017-06-28T08:28:08.099Z,88.65
2017-06-28T08:29:08.740Z,88.31
2017-06-28T08:30:09.386Z,87.97
2017-06-28T08:31:10.030Z,87.59
2017-06-28T08:32:10.923Z,88.12
2017-06-28T08:33:11.565Z,90.00
2017-06-28T08:34:12.209Z,88.45
2017-06-28T08:35:12.849Z,89.23
2017-06-28T08:36:13.492Z,87.68
2017-06-28T08:37:14.135Z,87.78
2017-06-28T08:38:14.780Z,86.62
2017-06-28T08:39:15.423Z,88.31
2017-06-28T08:40:16.212Z,88.93
2017-06-28T08:41:16.855Z,88.41
2017-06-28T08:42:17.500Z,88.84
2017-06-28T08:43:18.142Z,86.77
2017-06-28T08:44:18.789Z,86.43
2017-06-28T08:45:19.430Z,87.59
2017-06-28T08:46:20.069Z,87.06
2017-06-28T08:47:20.708Z,86.91
2017-06-28T08:48:21.553Z,88.41
2017-06-28T08:49:22.196Z,89.18
2017-06-28T08:50:22.837Z,87.59
2017-06-28T08:51:23.480Z,86.39
2017-06-28T08:52:24.121Z,88.45
2017-06-28T08:53:24.765Z,88.45
2017-06-28T08:54:25.408Z,87.59
2017-06-28T08:55:26.052Z,86.91
2017-06-28T08:56:26.896Z,88.26
2017-06-28T08:57:27.536Z,87.49
2017-06-28T08:58:28.180Z,89.61
2017-06-28T08:59:28.822Z,89.81
2017-06-28T09:00:29.472Z,89.71
2017-06-28T09:01:30.108Z,89.61
2017-06-28T09:02:30.749Z,89.42
2017-06-28T09:03:31.391Z,89.42
2017-06-28T09:04:32.032Z,89.13
2017-06-28T09:05:32.874Z,89.27
2017-06-28T09:06:33.516Z,89.61
2017-06-28T09:07:34.158Z,89.32
2017-06-28T09:08:34.799Z,89.27
2017-06-28T09:09:35.441Z,88.79
2017-06-28T09:10:36.084Z,88.69
2017-06-28T09:11:36.728Z,88.89
2017-06-28T09:12:37.369Z,88.59
2017-06-28T09:13:38.210Z,88.79
2017-06-28T09:14:38.855Z,89.07
2017-06-28T09:15:39.497Z,89.17
2017-06-28T09:16:40.141Z,88.79
2017-06-28T09:17:40.787Z,88.79
2017-06-28T09:18:41.428Z,89.47
2017-06-28T09:19:42.069Z,88.79
2017-06-28T09:20:42.712Z,89.07
2017-06-28T09:21:43.553Z,88.02
2017-06-28T09:22:44.194Z,88.69
2017-06-28T09:23:44.835Z,89.07
2017-06-28T09:24:45.478Z,89.17
2017-06-28T09:25:46.123Z,89.27
2017-06-28T09:26:46.774Z,89.27
2017-06-28T09:27:47.421Z,88.89
2017-06-28T09:28:48.069Z,88.69
2017-06-28T09:29:48.923Z,89.47
2017-06-28T09:30:49.633Z,89.47
2017-06-28T09:31:50.285Z,88.98
2017-06-28T09:32:50.933Z,88.98
2017-06-28T09:33:51.582Z,88.98
2017-06-28T09:34:52.230Z,89.17
2017-06-28T09:35:52.878Z,89.47
2017-06-28T09:36:53.525Z,88.59
2017-06-28T09:37:54.173Z,88.59
2017-06-28T09:39:41.505Z,88.89
2017-06-28T09:40:42.154Z,88.59
2017-06-28T09:41:42.801Z,88.79
2017-06-28T09:42:43.450Z,88.69
2017-06-28T09:43:44.088Z,88.89
2017-06-28T09:44:44.731Z,88.98
2017-06-28T09:45:45.373Z,88.79
2017-06-28T09:46:46.219Z,88.89
2017-06-28T09:47:46.864Z,88.59
2017-06-28T09:48:47.506Z,88.69
2017-06-28T09:49:48.149Z,88.79
2017-06-28T09:50:48.791Z,88.79
2017-06-28T09:51:49.438Z,88.59
2017-06-28T09:52:50.090Z,87.29
2017-06-28T09:53:50.791Z,86.52
2017-06-28T09:54:51.590Z,86.42
2017-06-28T09:55:52.238Z,86.42
2017-06-28T09:56:52.886Z,86.03
2017-06-28T09:57:53.534Z,85.49
2017-06-28T09:58:54.182Z,85.69
2017-06-28T09:59:54.828Z,85.78
2017-06-28T10:00:55.474Z,85.59
2017-06-28T10:01:56.119Z,85.69
2017-06-28T10:02:56.965Z,85.30
2017-06-28T10:03:57.611Z,84.82
2017-06-28T10:04:58.260Z,84.43
2017-06-28T10:05:58.910Z,84.47
2017-06-28T10:06:59.615Z,84.43
2017-06-28T10:08:00.263Z,84.19
2017-06-28T10:09:00.912Z,83.80
2017-06-28T10:10:01.560Z,82.45
2017-06-28T10:11:02.207Z,82.73
2017-06-28T10:12:03.005Z,82.83
2017-06-28T10:13:03.654Z,82.78
2017-06-28T10:14:04.304Z,81.90
2017-06-28T10:15:04.956Z,81.90
2017-06-28T10:16:05.604Z,81.62
2017-06-28T10:17:06.253Z,81.52
2017-06-28T10:18:06.904Z,81.62
2017-06-28T10:19:07.553Z,81.17
2017-06-28T10:20:08.402Z,81.04
2017-06-28T10:21:09.050Z,80.49
2017-06-28T10:22:09.700Z,80.49
2017-06-28T10:23:10.348Z,80.11
2017-06-28T10:24:10.996Z,80.01
2017-06-28T10:25:11.642Z,79.62
2017-06-28T10:26:12.290Z,79.43
2017-06-28T10:27:12.941Z,79.62
2017-06-28T10:28:13.788Z,78.94
2017-06-28T10:29:14.438Z,78.99
2017-06-28T10:30:15.086Z,78.89
2017-06-28T10:31:15.737Z,78.50
2017-06-28T10:32:16.385Z,78.50
2017-06-28T10:33:17.034Z,78.79
2017-06-28T10:34:17.685Z,78.41
2017-06-28T10:35:18.334Z,78.41
2017-06-28T10:36:19.187Z,78.31
2017-06-28T10:37:19.836Z,77.82
2017-06-28T10:38:20.483Z,77.82
2017-06-28T10:39:21.131Z,77.92
2017-06-28T10:40:21.779Z,78.11
2017-06-28T10:41:22.427Z,77.82
2017-06-28T10:42:23.076Z,77.63
2017-06-28T10:43:23.722Z,76.46
2017-06-28T10:44:24.371Z,76.46
2017-06-28T10:45:26.021Z,76.41
2017-06-28T10:46:26.672Z,75.50
2017-06-28T10:47:27.322Z,75.83
2017-06-28T10:48:27.974Z,74.82
2017-06-28T10:49:28.624Z,75.21
2017-06-28T10:50:29.274Z,74.82
2017-06-28T10:51:29.926Z,75.11
2017-06-28T10:52:30.582Z,73.66
2017-06-28T10:53:31.427Z,75.50
2017-06-28T10:54:32.076Z,75.60
2017-06-28T10:55:32.721Z,76.28
2017-06-28T10:56:33.371Z,75.89
2017-06-28T10:57:34.020Z,76.33
2017-06-28T10:58:34.670Z,77.30
2017-06-28T10:59:35.317Z,76.82
2017-06-28T11:00:35.964Z,76.33
2017-06-28T11:01:36.814Z,74.79
2017-06-28T11:02:37.462Z,76.04
2017-06-28T11:03:38.113Z,76.04
2017-06-28T11:04:38.763Z,75.65
2017-06-28T11:05:39.418Z,77.59
2017-06-28T11:06:40.063Z,78.27
2017-06-28T11:07:40.716Z,77.88
2017-06-28T11:08:41.364Z,77.88
2017-06-28T11:09:42.218Z,77.98
2017-06-28T11:10:43.635Z,76.82
2017-06-28T11:11:44.254Z,76.62
2017-06-28T11:12:44.907Z,76.72
2017-06-28T11:13:45.558Z,75.56
2017-06-28T11:14:46.206Z,75.37
2017-06-28T11:15:46.860Z,74.88
2017-06-28T11:16:47.509Z,74.59
2017-06-28T11:17:48.362Z,75.56
2017-06-28T11:18:49.011Z,76.56
2017-06-28T11:19:49.658Z,74.43
2017-06-28T11:20:50.309Z,75.60
2017-06-28T11:21:51.015Z,75.21
2017-06-28T11:22:51.664Z,74.76
2017-06-28T11:23:52.314Z,75.54
2017-06-28T11:24:52.965Z,75.54
2017-06-28T11:25:53.618Z,74.86
2017-06-28T11:26:54.469Z,74.96
2017-06-28T11:27:55.118Z,74.96
2017-06-28T11:28:55.768Z,74.96
2017-06-28T11:29:56.416Z,74.76
2017-06-28T11:30:57.066Z,75.05
2017-06-28T11:31:57.715Z,74.96
2017-06-28T11:32:58.362Z,75.63
2017-06-28T11:33:59.012Z,75.44
2017-06-28T11:34:59.910Z,75.54
2017-06-28T11:36:00.561Z,75.44
2017-06-28T11:37:01.210Z,75.44
2017-06-28T11:38:01.862Z,75.15
2017-06-28T11:39:02.512Z,75.34
2017-06-28T11:40:03.161Z,75.44
2017-06-28T11:41:03.809Z,75.34
2017-06-28T11:42:04.463Z,75.21
2017-06-28T11:43:05.361Z,75.54
2017-06-28T11:44:06.015Z,75.24
2017-06-28T11:45:06.665Z,75.15
2017-06-28T11:46:07.327Z,74.57
2017-06-28T11:47:07.970Z,74.08
2017-06-28T11:48:08.619Z,74.32
2017-06-28T11:49:09.273Z,74.02
2017-06-28T11:50:09.926Z,73.54
2017-06-28T11:51:10.827Z,73.64
2017-06-28T11:52:11.478Z,73.73
2017-06-28T11:53:12.131Z,73.35
2017-06-28T11:54:12.782Z,73.44
2017-06-28T11:55:13.433Z,73.44
2017-06-28T11:56:14.087Z,73.44
2017-06-28T11:57:14.737Z,73.50
2017-06-28T11:58:15.389Z,72.96
2017-06-28T11:59:16.292Z,72.38
2017-06-28T12:00:16.943Z,72.47
2017-06-28T12:01:17.594Z,72.77
2017-06-28T12:02:18.247Z,72.47
2017-06-28T12:03:18.900Z,72.28
2017-06-28T12:04:19.556Z,72.09
2017-06-28T12:05:20.208Z,72.22
2017-06-28T12:06:20.810Z,71.73
2017-06-28T12:07:21.461Z,71.80
2017-06-28T12:08:22.263Z,72.38
2017-06-28T12:09:22.915Z,72.28
2017-06-28T12:10:23.565Z,72.47
2017-06-28T12:11:24.216Z,72.28
2017-06-28T12:12:24.868Z,73.05
2017-06-28T12:13:25.520Z,72.34
2017-06-28T12:14:26.169Z,73.02
2017-06-28T12:15:26.820Z,73.31
2017-06-28T12:16:27.986Z,72.92
2017-06-28T12:17:29.586Z,72.73
2017-06-28T12:18:30.236Z,72.63
2017-06-28T12:19:30.946Z,72.34
2017-06-28T12:20:31.597Z,71.37
2017-06-28T12:21:32.249Z,71.22
2017-06-28T12:22:32.904Z,69.76
2017-06-28T12:23:33.555Z,70.54
2017-06-28T12:24:34.408Z,68.50
2017-06-28T12:25:35.057Z,69.27
2017-06-28T12:26:35.710Z,69.02
2017-06-28T12:27:36.364Z,69.12
2017-06-28T12:28:37.016Z,68.92
2017-06-28T12:29:37.672Z,67.99
2017-06-28T12:30:38.326Z,67.79
2017-06-28T12:31:38.979Z,68.08
2017-06-28T12:32:39.782Z,68.18
2017-06-28T12:33:40.434Z,67.83
2017-06-28T12:34:41.036Z,67.69
2017-06-28T12:35:41.692Z,67.69
2017-06-28T12:36:42.343Z,68.08
2017-06-28T12:37:42.994Z,68.08
2017-06-28T12:38:43.647Z,68.08
2017-06-28T12:39:44.297Z,68.28
2017-06-28T12:40:44.952Z,67.14
2017-06-28T12:41:45.803Z,66.56
2017-06-28T12:42:46.454Z,66.76
2017-06-28T12:43:47.104Z,66.02
2017-06-28T12:44:47.757Z,65.43
2017-06-28T12:45:48.411Z,64.69
2017-06-28T12:46:49.061Z,64.69
2017-06-28T12:47:49.713Z,65.43
2017-06-28T12:48:50.369Z,65.08
2017-06-28T12:49:51.172Z,65.14
2017-06-28T12:50:51.826Z,64.75
2017-06-28T12:51:52.479Z,64.30
2017-06-28T12:52:53.131Z,64.20
2017-06-28T12:53:53.790Z,64.69
2017-06-28T12:54:54.444Z,65.43
2017-06-28T12:55:55.098Z,64.65
2017-06-28T12:56:55.752Z,65.14
2017-06-28T12:57:56.607Z,64.40
2017-06-28T12:58:57.261Z,64.36
2017-06-28T12:59:57.913Z,64.07
2017-06-28T13:00:58.567Z,64.01
2017-06-28T13:01:59.221Z,64.11